Tiempo atmosférico en la estación meteorológica de Molina De Aragón, Guadalajara (1056 m.)



Fecha
DESCASC
Temp. máxima en grados centígrados (hora)
DESCASC
Temp. mínima en grados centígrados (hora)
DESCASC
Temp. media en grados centígrados
DESCASC
Racha de viento máxima en m/sg (hora)
DESCASC
Velocidad máxima media en intervalos de 10 minutos(hora)
DESCASC
Precipitaciones diarias en mm
DESCASC
Precipitaciones de 00:00 a 06:00 en mm
DESCASC
Precipitaciones de 06:00 a 12:00 en mm
DESCASC
Precipitaciones de 12:00 a 18:00 en mm
DESCASC
Precipitaciones de 18:00 a 24:00 en mm
DESCASC
15-07-2018 28.2 (16:40) 8.6 (07:20) 18.4 10.28 (18:30) 5.28 (18:50) 0 0 0 0 0
14-07-2018 29.7 (17:40) 15.7 (07:40) 22.7 10.56 (18:40) 5.28 (17:40) 0 0 0 0 0
13-07-2018 30.7 (14:50) 14.4 (06:20) 22.6 7.22 (19:10) 3.61 (13:30) 0 0 0 0 0
12-07-2018 29.1 (17:30) 14.4 (00:00) 21.8 9.44 (21:20) 3.61 (21:20) 0 0 0 0 0
11-07-2018 29.7 (15:10) 14 (00:00) 21.9 9.17 (19:20) 3.89 (18:20) 0 0 0 0 0
10-07-2018 29.5 (17:50) 12.8 (00:00) 21.2 8.06 (16:30) 3.61 (17:40) 0 0 0 0 0
09-07-2018 29.5 (15:50) 13.4 (00:00) 21.4 8.89 (16:00) 4.72 (16:00) 0 0 0 0 0
08-07-2018 30.3 (16:30) 14.2 (07:30) 22.2 6.94 (17:20) 3.33 (17:20) 1.4 0 0 0.2 1.2
07-07-2018 29.9 (17:40) 12.7 (00:00) 21.3 9.17 (15:00) 3.61 (15:00) 0 0 0 0 0
06-07-2018 27.4 (15:00) 10.1 (00:00) 18.8 6.11 (18:20) 2.78 (13:10) 0 0 0 0 0
05-07-2018 24.1 (18:00) 9.9 (07:20) 17 6.11 (16:00) 2.5 (12:30) 0 0 0 0 0
04-07-2018 26.8 (16:10) 10.2 (06:50) 18.5 10.56 (17:10) 5.83 (16:30) 0 0 0 0 0
03-07-2018 28.5 (17:00) 10.3 (07:20) 19.4 8.33 (17:20) 4.17 (17:20) 0 0 0 0 0
02-07-2018 25.3 (17:30) 10 (07:10) 17.6 8.61 (17:50) 3.89 (19:40) 0 0 0 0 0
01-07-2018 26.3 (17:50) 12.8 (00:00) 19.5 10.28 (16:10) 3.89 (16:30) 0 0 0 0 0
30-06-2018 28.2 (16:20) 12.2 (07:10) 20.2 16.67 (22:10) 5.83 (15:00) 23.6 0 0 0 23.6
29-06-2018 25.2 (12:30) 12.9 (00:00) 19.1 10 (14:10) 5.28 (14:10) 15 1.4 0 13.6 0
28-06-2018 26.8 (13:40) 12.9 (00:00) 19.8 8.89 (14:30) 4.17 (18:20) 10 0 0 10 0
27-06-2018 29.3 (14:50) 13.6 (00:00) 21.4 10 (15:10) 4.44 (16:10) 6 0 0 4.6 1.4
26-06-2018 33.3 (16:40) 12.5 (00:00) 22.9 12.78 (21:30) 6.11 (21:30) 0 0 0 0 0
25-06-2018 33 (18:20) 8.8 (00:00) 20.9 6.94 (15:50) 3.33 (16:40) 0 0 0 0 0
24-06-2018 32.2 (18:10) 12.1 (00:00) 22.2 7.5 (17:40) 3.61 (19:00) 0 0 0 0 0
23-06-2018 30.9 (15:30) 12.9 (00:00) 21.9 8.06 (13:20) 3.33 (20:00) 0 0 0 0 0
22-06-2018 31.6 (16:40) 10.9 (07:10) 21.3 7.5 (15:10) 3.33 (17:30) 0 0 0 0 0
21-06-2018 30.6 (18:10) 11.2 (00:00) 20.9 7.78 (14:30) 3.61 (14:50) 0 0 0 0 0
20-06-2018 30.2 (17:10) 11.9 (00:00) 21.1 6.11 (19:40) 2.78 (19:20) 0 0 0 0 0
19-06-2018 30 (18:30) 8.6 (00:00) 19.3 6.94 (20:10) 2.78 (20:10) 0 0 0 0 0
18-06-2018 27.1 (17:00) 8.4 (00:00) 17.8 6.67 (13:00) 3.06 (17:20) 0 0 0 0 0
17-06-2018 27.3 (17:30) 7.4 (00:00) 17.3 9.72 (18:50) 3.33 (18:10) 0 0 0 0 0

Gráficas

Temp. máximas Temp. mínimas Temp. medias Precipitaciones Rachas de viento máximas Velocidades máximas media en intervalos de 10 minutos

Datos horarios

Fecha y hora oficial Temperatura (ºC) Velocidad del viento (km/h) Dirección del viento Racha (km/h) Dirección de racha Precipitación (mm) Presión (hPa) Tendencia (hPa) Humedad (%)
2018-07-16 23:00:00 17.4 0 Calma 8 Nordeste 0 901.7 1.7 66
2018-07-16 22:00:00 19.2 4 Norte 10 Nordeste 0 900.9 1.4 58
2018-07-16 21:00:00 21.1 7 Norte 24 Nordeste 0 900.5 0.9 51
2018-07-16 20:00:00 24.1 12 Norte 26 Nordeste 0 900 0.4 45
2018-07-16 19:00:00 24.8 9 Norte 22 Norte 0 899.5 0.1 42
2018-07-16 18:00:00 24.8 9 Noroeste 25 Norte 0 899.6 0.1 43
2018-07-16 17:00:00 23.8 9 Noroeste 22 Noroeste 0 899.6 -0.3 45
2018-07-16 16:00:00 24.5 11 Noroeste 25 Oeste 0 899.4 -0.2 41
2018-07-16 15:00:00 24 9 Oeste 26 Noroeste 0 899.5 0.1 44
2018-07-16 14:00:00 22.1 12 Oeste 26 Oeste 0 899.9 0.9 51
2018-07-16 13:00:00 20.9 11 Noroeste 24 Noroeste 0 899.6 0.7 51
2018-07-16 12:00:00 20.1 10 Oeste 27 Noroeste 0 899.4 0.6 56
2018-07-16 11:00:00 18.2 13 Oeste 28 Oeste 0 899 0.7 63
2018-07-16 10:00:00 16.7 9 Oeste 24 Oeste 0 898.9 0.3 67
2018-07-16 09:00:00 14.1 6 Oeste 15 Noroeste 0 898.8 1.9 80
2018-07-16 08:00:00 12 8 Oeste 28 Norte 0.2 898.3 0.8 83
2018-07-16 07:00:00 11.8 12 Noroeste 40 Oeste 2.4 898.6 1.5 85
2018-07-16 06:00:00 13.7 15 Oeste 33 Oeste 0 896.9 -0.4 70
2018-07-16 05:00:00 14.9 12 Oeste 36 Noroeste 0 897.5 -0.5 58
2018-07-16 04:00:00 14.6 7 Oeste 13 Oeste 0 897.1 -0.9 62
2018-07-16 03:00:00 15.9 2 Oeste 11 Sudoeste 0 897.3 -0.4 54
2018-07-16 02:00:00 16.5 6 Oeste 17 Oeste 0 898 0.8 55
2018-07-16 01:00:00 16.7 9 Oeste 20 Oeste 0 898 1.6 51
2018-07-16 00:00:00 17.3 3 Este 6 Noroeste 0 897.7 1.8 47
2018-07-15 23:00:00 20 4 Norte 10 Oeste 0 897.2 1.3 38
2018-07-15 22:00:00 22.2 8 Oeste 17 Oeste 0 896.4 -0.1 33
2018-07-15 21:00:00 24 10 Sur 21 Oeste 0 895.9 -0.9 24
2018-07-15 20:00:00 25.8 8 Sudoeste 32 Sur 0 895.9 -0.8 21
2018-07-15 19:00:00 26.9 19 Sur 37 Sur 0 896.5 -0.2 18
2018-07-15 18:00:00 27.1 18 Sur 34 Sur 0 896.8 -0.4 22
2018-07-15 17:00:00 27.8 18 Sudoeste 35 Sur 0 896.7 -1 23
2018-07-15 16:00:00 27.8 15 Sudoeste 35 Oeste 0 896.7 -1.7 25
2018-07-15 15:00:00 27.4 12 Sudoeste 31 Oeste 0 897.2 -1.7 30
2018-07-15 14:00:00 26.7 10 Sudoeste 25 Sudoeste 0 897.7 -1.1 30
2018-07-15 13:00:00 25.7 11 Sudoeste 34 Sur 0 898.4 -0.7 30
2018-07-15 12:00:00 24.4 11 Sudoeste 27 Sur 0 898.9 -0.3 33
2018-07-15 11:00:00 22.9 13 Sudoeste 27 Sur 0 898.8 -0.5 39
2018-07-15 10:00:00 18.8 0 Calma 6 Sudoeste 0 899.1 -0.2 51
2018-07-15 09:00:00 13.8 2 Oeste 4 Oeste 0 899.2 0.1 62
2018-07-15 08:00:00 9.3 0 Calma 4 Sur 0 899.3 0.2 78
2018-07-15 07:00:00 8.8 2 Este 5 Este 0 899.3 0.2 77
2018-07-15 06:00:00 9.4 2 Este 4 Sudeste 0 899.1 -0.1 74
2018-07-15 05:00:00 10.3 0 Calma 3 Este 0 899.1 -0.2 72
2018-07-15 04:00:00 11.4 0 Calma 5 Sudeste 0 899.1 -0.3 67
2018-07-15 03:00:00 12.5 2 Este 5 Este 0 899.2 0.1 61
2018-07-15 02:00:00 13.8 2 Este 6 Sudeste 0 899.3 0.5 61
2018-07-15 01:00:00 15.3 3 Este 7 Este 0 899.4 1.2 54
2018-07-15 00:00:00 17.2 2 Este 9 Este 0 899.1 1.3 49
2018-07-14 23:00:00 19.4 3 Este 6 Sur 0 898.8 0.8 42
2018-07-14 22:00:00 22.8 0 Calma 12 Sur 0 898.2 0.2 36
2018-07-14 21:00:00 26 5 Sudoeste 29 Sudoeste 0 897.8 -0.5 27
2018-07-14 20:00:00 27.6 13 Sudoeste 35 Oeste 0 898 -0.4 22
2018-07-14 19:00:00 28.9 13 Sudoeste 38 Oeste 0 898 -0.5 19
2018-07-14 18:00:00 29.4 14 Sudoeste 37 Sur 0 898.3 -0.6 20
2018-07-14 17:00:00 29.4 13 Sudoeste 32 Sudoeste 0 898.4 -0.7 26
2018-07-14 16:00:00 29.1 14 Sudoeste 34 Sur 0 898.5 -0.8 25
2018-07-14 15:00:00 29.3 13 Sudoeste 31 Sudoeste 0 898.9 -0.5 23
2018-07-14 14:00:00 28.6 11 Sur 30 Sur 0 899.1 -0.6 32
2018-07-14 13:00:00 27.6 12 Sudoeste 29 Sudoeste 0 899.3 -0.5 39
2018-07-14 12:00:00 26.5 7 Oeste 14 Oeste 0 899.4 -0.4 46
2018-07-14 11:00:00 24.4 3 Oeste 9 Norte 0 899.7 0.3 58
2018-07-14 10:00:00 22.4 2 Nordeste 5 Este 0 899.8 0.8 61
2018-07-14 09:00:00 19 0 Calma 5 Nordeste 0 899.8 1.2 74
2018-07-14 08:00:00 16 2 Nordeste 5 Este 0 899.4 0.8 85
2018-07-14 07:00:00 16 2 Nordeste 9 Noroeste 0 899 0.4 84
2018-07-14 06:00:00 16.6 0 Calma 4 Sudeste 0 898.6 0.1 79
2018-07-14 05:00:00 18.1 3 Sur 10 Oeste 0 898.6 -0.2 75
2018-07-14 04:00:00 19 7 Oeste 17 Oeste 0 898.6 -0.1 74
2018-07-14 03:00:00 18.9 2 Norte 8 Noroeste 0 898.5 -0.2 70
2018-07-14 02:00:00 20 4 Nordeste 10 Nordeste 0 898.8 0.6 66
2018-07-14 01:00:00 20.4 3 Nordeste 8 Este 0 898.7 1.3 65
2018-07-14 00:00:00 21.8 4 Sudeste 8 Sudeste 0 898.7 2 58
2018-07-13 23:00:00 23.3 5 Sudeste 12 Oeste 0 898.2 1.8 49
2018-07-13 22:00:00 24.6 6 Oeste 10 Sudoeste 0 897.4 1 45
2018-07-13 21:00:00 26.9 6 Sudoeste 19 Oeste 0 896.7 0.1 39
2018-07-13 20:00:00 28.5 13 Oeste 26 Oeste 0 896.4 -0.5 34
2018-07-13 19:00:00 29.2 12 Sudoeste 24 Sudoeste 0 896.4 -0.7 32
2018-07-13 18:00:00 28.8 6 Oeste 16 Oeste 0 896.6 -0.8 38
2018-07-13 17:00:00 29.3 10 Sudoeste 20 Sur 0 896.9 -0.7 35
2018-07-13 16:00:00 28.6 2 Este 20 Sur 0 897.1 -0.8 37
2018-07-13 15:00:00 30 8 Sudoeste 23 Sur 0 897.4 -0.8 32
2018-07-13 14:00:00 29.4 8 Sudeste 21 Sur 0 897.6 -0.8 29
2018-07-13 13:00:00 29 6 Sudeste 24 Sudeste 0 897.9 -0.7 31
2018-07-13 12:00:00 26.6 5 Sur 12 Sudeste 0 898.2 -0.4 50
2018-07-13 11:00:00 24.2 3 Este 14 Norte 0 898.4 -0.4 54
2018-07-13 10:00:00 20.7 3 Norte 9 Norte 0 898.6 -0.3 80
2018-07-13 09:00:00 17.2 2 Sur 5 Este 0 898.6 -0.1 88
2018-07-13 08:00:00 16 3 Este 6 Este 0 898.8 0.1 90
2018-07-13 07:00:00 15.1 3 Norte 7 Nordeste 0 898.9 0.3 93
2018-07-13 06:00:00 14.6 0 Calma 4 Sudeste 0 898.7 -0.2 89
2018-07-13 05:00:00 15.2 2 Este 5 Sudeste 0 898.7 -0.4 90
2018-07-13 04:00:00 15.3 0 Calma 5 Este 0 898.6 -0.6 85
2018-07-13 03:00:00 16.2 0 Calma 9 Este 0 898.9 0 83
2018-07-13 02:00:00 16.9 3 Nordeste 10 Este 0 899.1 0.6 79
2018-07-13 01:00:00 17.8 2 Nordeste 8 Este 0 899.2 1.6 76
2018-07-13 00:00:00 18.4 3 Oeste 8 Norte 0 898.9 2.1 75
2018-07-12 23:00:00 19.3 3 Norte 14 Nordeste 0 898.5 2.1 70
2018-07-12 22:00:00 20.4 5 Nordeste 34 Norte 0 897.6 1.4 67
2018-07-12 21:00:00 24.1 3 Nordeste 12 Nordeste 0 896.8 0.6 57
2018-07-12 20:00:00 24.8 2 Nordeste 14 Este 0 896.4 0.2 55
2018-07-12 19:00:00 26.6 4 Nordeste 24 Norte 0 896.2 -0.3 50
2018-07-12 18:00:00 27.1 8 Norte 23 Norte 0 896.2 -0.6 49
2018-07-12 17:00:00 27.6 8 Oeste 20 Sudoeste 0 896.2 -0.8 32
2018-07-12 16:00:00 27.9 8 Sur 21 Sudoeste 0 896.5 -0.6 34
2018-07-12 15:00:00 26.9 9 Sudoeste 24 Oeste 0 896.8 -0.3 39
2018-07-12 14:00:00 26 7 Oeste 21 Oeste 0 897 -0.1 41
2018-07-12 13:00:00 25.1 6 Sudoeste 16 Sudoeste 0 897.1 0.1 49
2018-07-12 12:00:00 24.2 6 Noroeste 17 Oeste 0 897.1 0.4 56
2018-07-12 11:00:00 22.5 6 Oeste 14 Noroeste 0 897.1 0.4 65
2018-07-12 10:00:00 20.5 3 Oeste 9 Sudeste 0 897 0.6 68
2018-07-12 09:00:00 18 3 Este 8 Este 0 896.7 0.3 80
2018-07-12 08:00:00 14.7 0 Calma 6 Norte 0 896.7 0.3 89
2018-07-12 07:00:00 14.7 0 Calma 6 Este 0 896.4 0.1 86
2018-07-12 06:00:00 15.2 0 Calma 5 Este 0 896.4 0.1 84
2018-07-12 05:00:00 16.2 0 Calma 6 Este 0 896.4 -0.2 81
2018-07-12 04:00:00 17 3 Sur 13 Norte 0 896.3 -0.3 81
2018-07-12 03:00:00 17.2 6 Norte 17 Norte 0 896.3 -0.2 79
2018-07-12 02:00:00 17.7 7 Norte 17 Norte 0 896.6 0.2 76
2018-07-12 01:00:00 18.1 2 Este 8 Este 0 896.6 0 71
2018-07-12 00:00:00 18.2 3 Este 10 Este 0 896.5 0.5 69
2018-07-11 23:00:00 18.8 3 Nordeste 17 Nordeste 0 896.4 1.2 67
2018-07-11 22:00:00 20.1 4 Norte 15 Norte 0 896.6 1.8 60
2018-07-11 21:00:00 20.7 4 Este 24 Norte 0 896 1.6 63
2018-07-11 20:00:00 21.9 12 Norte 33 Norte 0 895.2 0.7 58
2018-07-11 19:00:00 25.9 7 Nordeste 31 Norte 0 894.8 -0.1 43
2018-07-11 18:00:00 29.5 10 Oeste 21 Sur 0 894.4 -0.8 26
2018-07-11 17:00:00 29.4 12 Sudoeste 32 Sur 0 894.5 -1 27
2018-07-11 16:00:00 28.7 12 Sudoeste 27 Oeste 0 894.9 -1 33
2018-07-11 15:00:00 29.5 11 Sudoeste 32 Oeste 0 895.2 -1.2 29
2018-07-11 14:00:00 29.3 13 Sur 26 Sudoeste 0 895.5 -1.3 28
2018-07-11 13:00:00 27.8 3 Norte 10 Noroeste 0 895.9 -1.7 37
2018-07-11 12:00:00 26.2 3 Oeste 9 Sudoeste 0 896.4 -1.5 45
2018-07-11 11:00:00 23.7 3 Este 7 Este 0 896.8 -1.2 57
2018-07-11 10:00:00 20.2 0 Calma 5 Sudoeste 0 897.6 -0.4 65
2018-07-11 09:00:00 16.6 2 Sur 7 Este 0 897.9 0.1 77
2018-07-11 08:00:00 14.2 2 Sudeste 5 Este 0 898 0 86
2018-07-11 07:00:00 14.1 2 Este 5 Este 0 898 -0.2 85
2018-07-11 06:00:00 14.5 2 Este 4 Este 0 897.8 -0.9 84
2018-07-11 05:00:00 15.1 0 Calma 8 Sudeste 0 898 -1 81
2018-07-11 04:00:00 15.7 3 Sudeste 8 Sudeste 0 898.2 -0.9 82
2018-07-11 03:00:00 16.2 2 Sudeste 5 Sudeste 0 898.7 -0.5 78
2018-07-11 02:00:00 16.8 0 Calma 9 Este 0 899 0 75
2018-07-11 01:00:00 17.7 4 Este 9 Este 0 899.1 0.9 71
2018-07-11 00:00:00 19.1 0 Calma 6 Este 0 899.2 1.3 65
2018-07-10 23:00:00 21 0 Calma 12 Nordeste 0 899 1.4 58
2018-07-10 22:00:00 23.6 6 Norte 13 Noroeste 0 898.2 0.5 39
2018-07-10 21:00:00 25.9 7 Norte 21 Norte 0 897.9 -0.2 32
2018-07-10 20:00:00 27.8 9 Noroeste 21 Noroeste 0 897.6 -0.6 28
2018-07-10 19:00:00 29.1 9 Noroeste 23 Noroeste 0 897.7 -0.7 28
2018-07-10 18:00:00 29.3 9 Oeste 25 Norte 0 898.1 -0.5 26
2018-07-10 17:00:00 29 12 Oeste 29 Noroeste 0 898.2 -0.8 30
2018-07-10 16:00:00 28.8 10 Oeste 22 Oeste 0 898.4 -1 32
2018-07-10 15:00:00 28.6 12 Noroeste 23 Noroeste 0 898.6 -1.2 28
2018-07-10 14:00:00 27.6 7 Oeste 18 Oeste 0 899 -1.2 32
2018-07-10 13:00:00 26.3 5 Noroeste 13 Sudoeste 0 899.4 -1.2 41
2018-07-10 12:00:00 24.1 7 Oeste 16 Sudoeste 0 899.8 -1 51
2018-07-10 11:00:00 22.3 3 Oeste 8 Sudeste 0 900.2 -0.5 55
2018-07-10 10:00:00 20.1 2 Este 6 Este 0 900.6 -0.1 68
2018-07-10 09:00:00 16.6 4 Este 7 Sudeste 0 900.8 0.3 79
2018-07-10 08:00:00 13.2 0 Calma 4 Sur 0 900.7 0.2 91
2018-07-10 07:00:00 12.9 0 Calma 5 Este 0 900.7 -0.1 90
2018-07-10 06:00:00 13.3 0 Calma 4 Sudeste 0 900.5 -0.4 88
2018-07-10 05:00:00 13.8 0 Calma 6 Sudeste 0 900.5 -0.8 87
2018-07-10 04:00:00 14.3 3 Este 6 Sudeste 0 900.8 -0.7 86
2018-07-10 03:00:00 15 0 Calma 8 Sudeste 0 900.9 -0.7 83
2018-07-10 02:00:00 16 3 Este 5 Este 0 901.3 -0.1 80
2018-07-10 01:00:00 17.6 2 Nordeste 8 Este 0 901.5 0.8 73
2018-07-10 00:00:00 19.1 3 Este 11 Este 0 901.6 1.6 67
2018-07-09 23:00:00 21 4 Este 15 Nordeste 0 901.4 2 60
2018-07-09 22:00:00 22.6 6 Este 12 Este 0 900.7 1.4 56
2018-07-09 21:00:00 24.4 2 Nordeste 22 Nordeste 0 900 0.4 53
2018-07-09 20:00:00 26.6 4 Nordeste 18 Este 0 899.4 -0.2 47
2018-07-09 19:00:00 27.3 5 Nordeste 21 Este 0 899.3 -0.8 45
2018-07-09 18:00:00 27.2 5 Sudeste 21 Nordeste 0 899.6 -0.7 46
2018-07-09 17:00:00 28.6 8 Norte 26 Norte 0 899.6 -1.2 45
2018-07-09 16:00:00 28.3 17 Norte 32 Norte 0 900.1 -1.4 42
2018-07-09 15:00:00 27.3 4 Sudeste 14 Sudeste 0 900.3 -1.5 45
2018-07-09 14:00:00 27.2 3 Sudeste 10 Este 0 900.8 -1.1 42
2018-07-09 13:00:00 25.5 5 Este 10 Este 0 901.5 -0.7 46
2018-07-09 12:00:00 23.6 0 Calma 10 Sudeste 0 901.8 -0.5 61
2018-07-09 11:00:00 22.9 2 Noroeste 5 Nordeste 0 901.9 -0.2 61
2018-07-09 10:00:00 19.6 2 Sudoeste 5 Sudoeste 0 902.2 0.3 80
2018-07-09 09:00:00 15.9 3 Sudoeste 5 Sur 0 902.3 0.6 91
2018-07-09 08:00:00 13.9 0 Calma 4 Sudeste 0 902.1 0.6 94
2018-07-09 07:00:00 13.4 0 Calma 4 Sur 0 901.9 0.1 93
2018-07-09 06:00:00 13.7 0 Calma 4 Sudeste 0 901.7 -0.2 92
2018-07-09 05:00:00 14.2 0 Calma 5 Sudeste 0 901.5 -0.9 90
2018-07-09 04:00:00 14.9 0 Calma 5 Sudeste 0 901.8 -0.7 90
2018-07-09 03:00:00 15.5 2 Sudeste 6 Sur 0 901.9 -0.7 88
2018-07-09 02:00:00 16.2 2 Este 6 Sudeste 0 902.4 0 87
2018-07-09 01:00:00 16.9 2 Este 11 Este 0 902.5 0.4 83
2018-07-09 00:00:00 18.2 7 Este 12 Este 0 902.6 1.9 77
2018-07-08 23:00:00 19.2 5 Norte 13 Norte 0.8 902.4 1.9 79
2018-07-08 22:00:00 22.1 7 Sur 13 Este 0 902.1 2.1 61
2018-07-08 21:00:00 23.5 5 Nordeste 21 Este 0 900.7 0.8 54
2018-07-08 20:00:00 24.7 6 Norte 13 Norte 0 900.5 0.6 58
2018-07-08 19:00:00 24.1 3 Norte 22 Norte 0.4 900 -0.1 63
2018-07-08 18:00:00 26.5 6 Norte 25 Norte 0 899.9 -0.7 48
2018-07-08 17:00:00 28.8 8 Norte 20 Nordeste 0 899.9 -1.2 37
2018-07-08 16:00:00 29.4 4 Este 12 Nordeste 0.2 900.1 -1.5 30
2018-07-08 15:00:00 27.9 5 Sudeste 15 Sudeste 0 900.6 -1.2 37
2018-07-08 14:00:00 28.1 5 Este 13 Sur 0 901.1 -0.8 39
2018-07-08 13:00:00 26.6 5 Sudeste 18 Este 0 901.6 -0.3 46
2018-07-08 12:00:00 24.9 8 Este 17 Este 0 901.8 -0.2 49
2018-07-08 11:00:00 23.4 6 Este 19 Nordeste 0 901.9 0.2 50
2018-07-08 10:00:00 20.9 2 Noroeste 10 Sur 0 901.9 0.4 68
2018-07-08 09:00:00 17.6 3 Sudeste 8 Este 0 902 0.8 81
2018-07-08 08:00:00 14.5 2 Nordeste 5 Sudeste 0 901.7 0.6 91
2018-07-08 07:00:00 14.6 2 Sudeste 7 Este 0 901.5 0.5 89
2018-07-08 06:00:00 15.1 0 Calma 7 Sudeste 0 901.2 0.1 89
2018-07-08 05:00:00 15.6 3 Este 6 Este 0 901.1 -0.2 86
2018-07-08 04:00:00 16.7 4 Este 9 Este 0 901 -0.5 85
2018-07-08 03:00:00 17.7 2 Nordeste 8 Este 0 901.1 0.1 84
2018-07-08 02:00:00 18.8 2 Nordeste 13 Este 0 901.3 1.2 75
2018-07-08 01:00:00 20 6 Este 23 Este 0 901.5 2.2 69
2018-07-08 00:00:00 21.1 8 Este 20 Norte 0 901 2.3 54
2018-07-07 23:00:00 21.9 7 Norte 23 Norte 0 900.1 1.7 53
2018-07-07 22:00:00 23.6 8 Norte 24 Norte 0 899.3 1.1 51
2018-07-07 21:00:00 25.5 4 Oeste 16 Sudoeste 0 898.7 0.1 34
2018-07-07 20:00:00 28.1 9 Oeste 22 Sudoeste 0 898.4 -0.7 27
2018-07-07 19:00:00 29.6 7 Oeste 21 Oeste 0 898.2 -1.3 26
2018-07-07 18:00:00 29.7 10 Sudoeste 23 Oeste 0 898.6 -1.2 29
2018-07-07 17:00:00 29.3 8 Sudoeste 23 Sudoeste 0 899.1 -1.2 30
2018-07-07 16:00:00 29 8 Sudoeste 25 Sur 0 899.5 -1.2 29
2018-07-07 15:00:00 28.7 13 Sudoeste 33 Sudoeste 0 899.8 -1.3 33
2018-07-07 14:00:00 27.6 4 Sur 10 Este 0 900.3 -0.9 41
2018-07-07 13:00:00 25.9 5 Nordeste 18 Sur 0 900.7 -0.7 45
2018-07-07 12:00:00 23.8 4 Sur 12 Sudeste 0 901.1 -0.2 49
2018-07-07 11:00:00 21.5 5 Este 12 Norte 0 901.2 0.2 60
2018-07-07 10:00:00 17.6 3 Sudoeste 10 Oeste 0 901.4 0.7 80
2018-07-07 09:00:00 15.6 4 Oeste 10 Norte 0 901.3 0.8 87
2018-07-07 08:00:00 13.3 3 Sur 5 Sur 0 901 0.2 92
2018-07-07 07:00:00 12.8 3 Sudeste 6 Sudeste 0 900.7 -0.3 90
2018-07-07 06:00:00 13.4 2 Este 4 Este 0 900.5 -0.6 89
2018-07-07 05:00:00 14.5 0 Calma 4 Este 0 900.8 -0.6 86
2018-07-07 04:00:00 15.6 0 Calma 2 Norte 0 901 -0.9 84
2018-07-07 03:00:00 16.3 2 Sur 5 Sudeste 0 901.1 -0.6 83
2018-07-07 02:00:00 16.7 2 Sudeste 8 Este 0 901.4 -0.1 74
2018-07-07 01:00:00 17.8 3 Nordeste 9 Este 0 901.9 1.2 65
2018-07-07 00:00:00 18 0 Calma 5 Norte 0 901.7 1.8 64
2018-07-06 23:00:00 19.4 0 Calma 11 Nordeste 0 901.5 1.8 59
2018-07-06 22:00:00 21 0 Calma 12 Este 0 900.7 1 54
2018-07-06 21:00:00 23.5 3 Nordeste 21 Este 0 899.9 -0.3 49
2018-07-06 20:00:00 25.5 5 Nordeste 18 Este 0 899.7 -0.6 44
2018-07-06 19:00:00 26.5 4 Nordeste 22 Nordeste 0 899.7 -0.9 41
2018-07-06 18:00:00 27.1 7 Norte 17 Norte 0 900.2 -0.6 43
2018-07-06 17:00:00 27.1 4 Sur 17 Oeste 0 900.3 -1 35
2018-07-06 16:00:00 26.6 5 Sur 17 Oeste 0 900.6 -1.1 34
2018-07-06 15:00:00 27.3 8 Sur 19 Sur 0 900.8 -1.1 32
2018-07-06 14:00:00 25.7 7 Oeste 16 Sudoeste 0 901.3 -0.7 40
2018-07-06 13:00:00 25.5 6 Nordeste 18 Nordeste 0 901.7 -0.5 39
2018-07-06 12:00:00 23.5 5 Norte 16 Norte 0 901.9 -0.6 53
2018-07-06 11:00:00 21.3 6 Norte 15 Norte 0 902 -0.3 58
2018-07-06 10:00:00 17.6 4 Sudoeste 8 Sur 0 902.2 0.1 72
2018-07-06 09:00:00 13.9 3 Sur 5 Sur 0 902.5 0.4 83
2018-07-06 08:00:00 10.4 0 Calma 4 Sudeste 0 902.3 0.1 92
2018-07-06 07:00:00 10.3 0 Calma 4 Este 0 902.1 -0.3 90
2018-07-06 06:00:00 10.9 2 Sudeste 5 Sudeste 0 902.1 -0.5 90
2018-07-06 05:00:00 11.7 0 Calma 7 Este 0 902.2 -0.7 87
2018-07-06 04:00:00 12.3 3 Nordeste 11 Este 0 902.4 -0.5 85
2018-07-06 03:00:00 12.7 3 Este 9 Este 0 902.6 0.2 84
2018-07-06 02:00:00 13.6 3 Este 11 Este 0 902.9 1 81
2018-07-06 01:00:00 14.7 4 Este 11 Este 0 902.9 2.1 77
2018-07-06 00:00:00 15.6 5 Este 10 Sudeste 0 902.4 1.9 71
2018-07-05 23:00:00 17 0 Calma 10 Norte 0 901.9 1.6 65
2018-07-05 22:00:00 19 4 Norte 10 Noroeste 0 900.8 0.5 56
2018-07-05 21:00:00 21.7 7 Noroeste 16 Noroeste 0 900.5 0.1 41
2018-07-05 20:00:00 23 6 Norte 13 Noroeste 0 900.3 -0.3 40
2018-07-05 19:00:00 22.8 4 Noroeste 19 Oeste 0 900.3 -0.5 43
2018-07-05 18:00:00 23.9 8 Oeste 16 Oeste 0 900.4 -0.6 39
2018-07-05 17:00:00 23.3 8 Oeste 20 Oeste 0 900.6 -0.6 42
2018-07-05 16:00:00 22.8 6 Este 22 Norte 0 900.8 -0.3 44
2018-07-05 15:00:00 22.1 6 Noroeste 18 Noroeste 0 901 -0.1 45
2018-07-05 14:00:00 21.1 9 Oeste 20 Noroeste 0 901.2 -0.2 47
2018-07-05 13:00:00 20.6 6 Oeste 20 Oeste 0 901.1 -0.4 52
2018-07-05 12:00:00 20.5 7 Oeste 14 Noroeste 0 901.1 -0.3 60
2018-07-05 11:00:00 18.6 6 Noroeste 13 Norte 0 901.4 0.5 64
2018-07-05 10:00:00 16.6 4 Noroeste 9 Noroeste 0 901.5 1 70
2018-07-05 09:00:00 12.6 2 Sudoeste 4 Sur 0 901.4 1.2 79
2018-07-05 08:00:00 10.4 2 Sur 4 Sur 0 900.9 0.9 89
2018-07-05 07:00:00 10 2 Este 5 Sudeste 0 900.5 0.7 87
2018-07-05 06:00:00 10.7 2 Este 6 Este 0 900.2 0.4 84
2018-07-05 05:00:00 11.1 2 Sudoeste 6 Este 0 900 0.2 82
2018-07-05 04:00:00 11.6 0 Calma 7 Sudeste 0 899.8 0.3 80
2018-07-05 03:00:00 12.1 2 Este 6 Norte 0 899.8 0.6 75
2018-07-05 02:00:00 12.9 3 Este 7 Sudeste 0 899.8 1 72
2018-07-05 01:00:00 14.2 0 Calma 9 Sudeste 0 899.5 1.6 67
2018-07-05 00:00:00 15.6 3 Sudeste 7 Noroeste 0 899.2 1.9 63
2018-07-04 23:00:00 17.3 0 Calma 10 Oeste 0 898.8 2.2 54
2018-07-04 22:00:00 20 4 Sudoeste 21 Sudoeste 0 897.9 1.9 43
2018-07-04 21:00:00 22.3 14 Oeste 27 Oeste 0 897.3 1.3 37
2018-07-04 20:00:00 24 15 Oeste 35 Oeste 0 896.6 0.8 35
2018-07-04 19:00:00 25.6 14 Sudoeste 35 Oeste 0 896 -0.1 33
2018-07-04 18:00:00 26.5 15 Sudoeste 38 Sudoeste 0 896 -0.3 28
2018-07-04 17:00:00 26.5 14 Sudoeste 37 Sudoeste 0 895.8 -0.8 29
2018-07-04 16:00:00 26.6 13 Sudoeste 37 Sudoeste 0 896.1 -0.6 30
2018-07-04 15:00:00 26.4 12 Sudoeste 36 Sur 0 896.3 -0.5 30
2018-07-04 14:00:00 25.8 17 Sudoeste 34 Oeste 0 896.6 -0.1 28
2018-07-04 13:00:00 25.2 12 Sudoeste 32 Oeste 0 896.7 -0.1 32
2018-07-04 12:00:00 24.5 15 Sudoeste 33 Sur 0 896.8 -0.3 37
2018-07-04 11:00:00 23.5 12 Sudoeste 25 Sur 0 896.7 -0.4 42
2018-07-04 10:00:00 19.3 2 Este 5 Este 0 896.8 -0.4 65
2018-07-04 09:00:00 14.2 2 Sudoeste 5 Sudoeste 0 897.1 0.1 77
2018-07-04 08:00:00 10.7 0 Calma 7 Este 0 897.1 -0.3 91
2018-07-04 07:00:00 10.2 3 Nordeste 5 Este 0 897.2 -0.5 91
2018-07-04 06:00:00 10.7 0 Calma 4 Sudeste 0 897 -1 89
2018-07-04 05:00:00 11.2 2 Sudeste 4 Este 0 897.4 -0.9 87
2018-07-04 04:00:00 12 3 Este 5 Este 0 897.7 -0.9 86
2018-07-04 03:00:00 12.8 0 Calma 3 Sur 0 898 -0.6 83
2018-07-04 02:00:00 13.9 2 Este 4 Este 0 898.3 0.2 79
2018-07-04 01:00:00 15 0 Calma 5 Este 0 898.6 1.3 75
2018-07-04 00:00:00 16.3 3 Este 8 Este 0 898.6 1.6 68
2018-07-03 23:00:00 18.8 2 Este 7 Sudeste 0 898.1 1.4 61
2018-07-03 22:00:00 22.2 2 Este 12 Sudoeste 0 897.3 0.7 45
2018-07-03 21:00:00 25.3 7 Oeste 18 Sudoeste 0 897 0 34
2018-07-03 20:00:00 27.1 8 Sudoeste 24 Oeste 0 896.7 -0.5 29
2018-07-03 19:00:00 28 13 Oeste 25 Sudoeste 0 896.6 -0.8 27
2018-07-03 18:00:00 28.4 11 Sudoeste 30 Oeste 0 897 -0.7 29
2018-07-03 17:00:00 28.5 12 Oeste 26 Sudoeste 0 897.2 -0.9 32
2018-07-03 16:00:00 27.8 10 Sudoeste 29 Sudoeste 0 897.4 -1 33
2018-07-03 15:00:00 27.1 12 Oeste 24 Sudoeste 0 897.7 -1 34
2018-07-03 14:00:00 26.2 11 Sudoeste 25 Oeste 0 898.1 -0.9 36
2018-07-03 13:00:00 25.1 6 Oeste 19 Oeste 0 898.4 -0.9 36
2018-07-03 12:00:00 24.4 6 Este 11 Sur 0 898.7 -0.8 49
2018-07-03 11:00:00 21.1 4 Oeste 7 Oeste 0 899 -0.4 57
2018-07-03 10:00:00 17.8 3 Sur 5 Sur 0 899.3 0.1 66
2018-07-03 09:00:00 14.2 0 Calma 4 Norte 0 899.5 0.5 80
2018-07-03 08:00:00 10.9 2 Este 4 Este 0 899.4 0.5 93
2018-07-03 07:00:00 10.4 2 Sudeste 4 Sudeste 0 899.2 0.3 91
2018-07-03 06:00:00 11 0 Calma 4 Este 0 899 0.3 91
2018-07-03 05:00:00 11.5 0 Calma 5 Sudeste 0 898.9 0 89
2018-07-03 04:00:00 12 0 Calma 4 Sudeste 0 898.9 0.1 87
2018-07-03 03:00:00 12.8 0 Calma 6 Este 0 898.7 0.3 84
2018-07-03 02:00:00 13.7 2 Este 6 Sudeste 0 898.9 0.8 80
2018-07-03 01:00:00 15 2 Este 5 Sudeste 0 898.8 1.4 78
2018-07-03 00:00:00 16.3 0 Calma 3 Norte 0 898.4 1.4 70
2018-07-02 23:00:00 18.5 2 Norte 9 Sudoeste 0 898.1 1.3 60
2018-07-02 22:00:00 20.7 4 Oeste 17 Oeste 0 897.4 1.1 48
2018-07-02 21:00:00 22.4 8 Oeste 22 Oeste 0 897 0.5 44
2018-07-02 20:00:00 23.8 13 Oeste 27 Sudoeste 0 896.8 0.2 39
2018-07-02 19:00:00 24.9 13 Sudoeste 31 Oeste 0 896.3 -0.6 38
2018-07-02 18:00:00 25.2 10 Sudoeste 31 Oeste 0 896.5 -0.4 39
2018-07-02 17:00:00 24.9 13 Sudoeste 28 Sudoeste 0 896.6 -0.6 42
2018-07-02 16:00:00 24.6 9 Sudoeste 22 Oeste 0 896.9 -0.4 42
2018-07-02 15:00:00 23.8 5 Sur 30 Sudoeste 0 896.9 -0.1 47
2018-07-02 14:00:00 23.1 9 Sudoeste 28 Oeste 0 897.2 0.3 44
2018-07-02 13:00:00 22.3 -- -- 23 Oeste 0 897.3 0.3 49
2018-07-02 12:00:00 21.3 8 Sudoeste 22 Sudoeste 0 897 0.4 51
2018-07-02 11:00:00 19.7 8 Sudoeste 24 Oeste 0 896.9 0.5 53
2018-07-02 10:00:00 18.2 5 Oeste 12 Oeste 0 897 1 63
2018-07-02 09:00:00 14 2 Este 5 Noroeste 0 896.6 0.9 82
2018-07-02 08:00:00 10.6 0 Calma 4 Este 0 896.4 1.1 94
2018-07-02 07:00:00 10.1 0 Calma 5 Este 0 896 0.8 92
2018-07-02 06:00:00 10.5 0 Calma 3 Sur 0 895.7 0.7 91
2018-07-02 05:00:00 11.1 2 Sudeste 4 Sudeste 0 895.3 0.4 91
2018-07-02 04:00:00 11.6 0 Calma 6 Sudeste 0 895.2 0.1 89
2018-07-02 03:00:00 12.3 4 Este 8 Este 0 895 0 88
2018-07-02 02:00:00 13.1 4 Este 6 Sudeste 0 894.9 0.1 85
2018-07-02 01:00:00 14.1 2 Este 5 Este 0 895.1 1.2 82
2018-07-02 00:00:00 15.3 3 Este 8 Este 0 895 1.8 76
2018-07-01 23:00:00 17.7 3 Sudeste 7 Sudeste 0 894.8 2 68
2018-07-01 22:00:00 20.3 5 Sudoeste 11 Sur 0 893.9 1.5 49
2018-07-01 21:00:00 22.7 8 Sudoeste 22 Sur 0 893.2 0.8 36
2018-07-01 20:00:00 24.5 10 Sudoeste 29 Sudoeste 0 892.8 0.4 37
2018-07-01 19:00:00 25.7 11 Sudoeste 28 Oeste 0 892.4 -0.2 39
2018-07-01 18:00:00 26 9 Sudoeste 27 Oeste 0 892.4 -0.6 41
2018-07-01 17:00:00 26 13 Sudoeste 37 Oeste 0 892.4 -0.9 47
2018-07-01 16:00:00 26.1 13 Sudoeste 29 Sudoeste 0 892.6 -0.9 47
2018-07-01 15:00:00 25.3 8 Sudoeste 21 Sudoeste 0 893 -0.8 52
2018-07-01 14:00:00 24.4 4 Sudeste 12 Nordeste 0 893.3 -0.4 59
2018-07-01 13:00:00 23.1 4 Norte 13 Noroeste 0 893.5 -0.3 59
2018-07-01 12:00:00 22.6 6 Oeste 13 Sudoeste 0 893.8 0.1 64
2018-07-01 11:00:00 20.9 6 Noroeste 16 Oeste 0 893.7 0.1 72
2018-07-01 10:00:00 18.5 7 Oeste 14 Oeste 0 893.8 0.4 81
2018-07-01 09:00:00 14.7 0 Calma 5 Este 0 893.7 0.7 99
2018-07-01 08:00:00 13.1 3 Este 4 Este 0 893.6 0.8 98
2018-07-01 07:00:00 13 3 Sur 4 Sudeste 0 893.4 0.6 97
2018-07-01 06:00:00 12.8 0 Calma 4 Sudeste 0 893 -0.1 96
2018-07-01 05:00:00 13.3 0 Calma 5 Este 0 892.8 -0.4 94
2018-07-01 04:00:00 13.9 0 Calma 6 Sudeste 0 892.8 -0.6 95
2018-07-01 03:00:00 14.4 2 Este 6 Sudeste 0 893.1 -0.3 95
2018-07-01 02:00:00 14.8 0 Calma 4 Este 0 893.2 0.3 94
2018-07-01 01:00:00 15.3 3 Sudeste 8 Este 0 893.4 0.2 93
2018-07-01 00:00:00 15.8 4 Este 16 Este 0 893.4 2.4 92
2018-06-30 23:00:00 17 4 Sudeste 60 Sur 17.6 892.9 2.3 92
2018-06-30 22:00:00 20.9 12 Sudoeste 37 Sur 6 893.2 3 77
2018-06-30 21:00:00 23.8 8 Norte 19 Oeste 0 891 0.8 61
2018-06-30 20:00:00 24.3 6 Sur 23 Sudoeste 0 890.6 0.4 53
2018-06-30 19:00:00 26.4 7 Sudoeste 27 Sur 0 890.2 0 48
2018-06-30 18:00:00 27.2 11 Sudoeste 29 Oeste 0 890.2 -0.2 44
2018-06-30 17:00:00 26.8 11 Sur 24 Sur 0 890.2 -0.5 45
2018-06-30 16:00:00 27.2 12 Sur 37 Sudeste 0 890.2 -1.2 39
2018-06-30 15:00:00 27.2 21 Este 36 Este 0 890.4 -1.4 41
2018-06-30 14:00:00 27.3 11 Este 29 Este 0 890.7 -1.3 41
2018-06-30 13:00:00 26.7 6 Este 15 Este 0 891.4 -1.2 46
2018-06-30 12:00:00 25.1 3 Nordeste 12 Sudeste 0 891.8 -1 48
2018-06-30 11:00:00 22.1 2 Norte 7 Este 0 892 -0.9 61
2018-06-30 10:00:00 18.1 4 Oeste 8 Oeste 0 892.6 -0.4 80
2018-06-30 09:00:00 15.2 2 Sur 6 Sudeste 0 892.8 0.3 93
2018-06-30 08:00:00 12.9 3 Sudeste 6 Este 0 892.9 0.4 96
2018-06-30 07:00:00 12.3 0 Calma 6 Este 0 893 0.4 95
2018-06-30 06:00:00 12.6 0 Calma 3 Norte 0 892.5 -0.2 95
2018-06-30 05:00:00 13.1 0 Calma 4 Sudoeste 0 892.5 -0.5 94
2018-06-30 04:00:00 13.7 0 Calma 4 Sur 0 892.6 -0.2 93
2018-06-30 03:00:00 14.3 0 Calma 5 Norte 0 892.7 0.1 92
2018-06-30 02:00:00 15 0 Calma 5 Oeste 0 893 0.7 92
2018-06-30 01:00:00 15.6 0 Calma 4 Este 0 892.8 1.1 89
2018-06-30 00:00:00 16.5 2 Este 8 Este 0 892.6 1.5 88
2018-06-29 23:00:00 17.9 0 Calma 6 Este 0 892.3 1.2 86
2018-06-29 22:00:00 19.4 3 Nordeste 9 Norte 0 891.7 0.5 81
2018-06-29 21:00:00 20.7 9 Norte 23 Norte 0 891.1 -0.1 77
2018-06-29 20:00:00 22.2 12 Norte 26 Norte 0 891.1 -0.3 70
2018-06-29 19:00:00 22.6 10 Norte 23 Nordeste 0 891.2 -0.4 72
2018-06-29 18:00:00 21.8 9 Norte 26 Nordeste 0 891.2 -0.8 74
2018-06-29 17:00:00 23.2 4 Nordeste 23 Norte 0 891.4 -1.2 69
2018-06-29 16:00:00 20.8 4 Nordeste 27 Nordeste 0.6 891.6 -0.6 86
2018-06-29 15:00:00 18.1 4 Nordeste 36 Este 0.4 892 -0.5 89
2018-06-29 14:00:00 16.3 14 Este 35 Este 12.6 892.6 -0.1 87
2018-06-29 13:00:00 23.7 12 Este 21 Este 0 892.2 -0.7 56
2018-06-29 12:00:00 24.4 3 Norte 14 Este 0 892.5 -0.7 56
2018-06-29 11:00:00 21.8 3 Sudeste 9 Sur 0 892.7 -0.7 68
2018-06-29 10:00:00 18.2 4 Sudoeste 7 Sur 0 892.9 -0.5 79
2018-06-29 09:00:00 15.6 2 Norte 5 Sur 0 893.2 0 88
2018-06-29 08:00:00 13.4 2 Sur 6 Sur 0 893.4 0.2 95
2018-06-29 07:00:00 13 2 Sudoeste 6 Sur 0 893.4 -0.2 95
2018-06-29 06:00:00 13.3 0 Calma 14 Nordeste 0 893.2 -1.3 92
2018-06-29 05:00:00 14.3 0 Calma 8 Sudeste 0 893.2 -2.2 91
2018-06-29 04:00:00 14.8 2 Nordeste 12 Este 0 893.6 0.2 91
2018-06-29 03:00:00 15.4 3 Noroeste 27 Sudoeste 1.2 894.5 0.9 88
2018-06-29 02:00:00 17.6 11 Sudoeste 31 Sur 0.2 895.4 1.8 80
2018-06-29 01:00:00 16.9 5 Nordeste 13 Este 0 893.4 0.2 87
2018-06-29 00:00:00 16.8 0 Calma 4 Este 0 893.6 0.2 89
2018-06-28 23:00:00 17.4 2 Nordeste 10 Este 0 893.6 0.1 85
2018-06-28 22:00:00 18.4 2 Nordeste 8 Sur 0 893.2 -0.1 80
2018-06-28 21:00:00 19.2 0 Calma 19 Norte 0 893.4 -0.1 75
2018-06-28 20:00:00 20.7 8 Norte 17 Norte 0 893.5 0.2 71
2018-06-28 19:00:00 20.9 13 Este 32 Sudeste 0 893.3 -0.8 69
2018-06-28 18:00:00 22 13 Este 25 Este 0 893.5 -1.4 65
2018-06-28 17:00:00 20.9 3 Sur 17 Este 0 893.3 -0.6 77
2018-06-28 16:00:00 19.2 6 Sur 24 Noroeste 7.2 894.1 -0.5 83
2018-06-28 15:00:00 19.3 5 Noroeste 32 Sudeste 2.8 894.9 -0.4 77
2018-06-28 14:00:00 25.6 5 Norte 17 Sudeste 0 893.9 -1.6 54
2018-06-28 13:00:00 25.1 4 Este 9 Este 0 894.6 -1.4 54
2018-06-28 12:00:00 22.6 2 Sudoeste 8 Sur 0 895.3 -1.2 69
2018-06-28 11:00:00 21.8 3 Sudoeste 6 Sur 0 895.5 -0.8 70
2018-06-28 10:00:00 19.3 2 Este 6 Este 0 896 -0.3 80
2018-06-28 09:00:00 15.8 2 Este 5 Sudeste 0 896.5 0.4 93
2018-06-28 08:00:00 13.8 0 Calma 5 Este 0 896.3 0.3 96
2018-06-28 07:00:00 12.9 0 Calma 5 Sudeste 0 896.3 -0.1 94
2018-06-28 06:00:00 13.4 2 Sudeste 5 Sudeste 0 896.1 -0.8 94
2018-06-28 05:00:00 13.9 0 Calma 4 Sudoeste 0 896 -1.3 93
2018-06-28 04:00:00 14.5 0 Calma 5 Nordeste 0 896.4 -1.3 91
2018-06-28 03:00:00 15.3 0 Calma 6 Este 0 896.9 -1.2 91
2018-06-28 02:00:00 16.1 0 Calma 9 Este 0 897.3 -1.4 89
2018-06-28 01:00:00 17 4 Este 6 Este 0 897.7 0.2 88
2018-06-28 00:00:00 17.9 3 Oeste 13 Norte 0 898.1 1.2 85
2018-06-27 23:00:00 18.8 6 Este 10 Este 1.4 898.7 1.2 83
2018-06-27 22:00:00 20.4 3 Nordeste 12 Nordeste 0 897.5 -0.1 67
2018-06-27 21:00:00 21.5 6 Este 21 Sudeste 0 896.9 -1 62
2018-06-27 20:00:00 22.4 10 Este 22 Este 0 897.5 0.1 63
2018-06-27 19:00:00 22.7 10 Sudeste 18 Sudeste 0 897.6 -0.1 65
2018-06-27 18:00:00 21.9 6 Este 19 Nordeste 0 897.9 0.7 71
2018-06-27 17:00:00 20.3 6 Nordeste 32 Norte 1 897.4 0 89
2018-06-27 16:00:00 22 9 Norte 36 Este 3.6 897.7 -0.1 80
2018-06-27 15:00:00 27.9 12 Sudeste 24 Sudeste 0 897.2 -1.2 37
2018-06-27 14:00:00 28.4 6 Oeste 18 Sudoeste 0 897.4 -1.3 40
2018-06-27 13:00:00 28 5 Oeste 14 Oeste 0 897.8 -1.4 37
2018-06-27 12:00:00 26.2 7 Oeste 13 Oeste 0 898.4 -1.1 42
2018-06-27 11:00:00 23.9 4 Oeste 10 Sudoeste 0 898.7 -0.8 51
2018-06-27 10:00:00 20.8 3 Sudoeste 7 Sudeste 0 899.2 -0.1 62
2018-06-27 09:00:00 17.5 2 Sudoeste 5 Oeste 0 899.5 0 79
2018-06-27 08:00:00 14.4 0 Calma 5 Sudeste 0 899.5 0.1 90
2018-06-27 07:00:00 13.7 0 Calma 5 Nordeste 0 899.3 -0.1 88
2018-06-27 06:00:00 14.4 3 Este 5 Sudeste 0 899.5 0.3 86
2018-06-27 05:00:00 15.4 2 Sudeste 6 Este 0 899.4 0.3 83
2018-06-27 04:00:00 16.5 3 Este 8 Este 0 899.4 0 79
2018-06-27 03:00:00 18 0 Calma 8 Nordeste 0 899.2 -0.1 73
2018-06-27 02:00:00 19.3 2 Nordeste 13 Sudeste 0 899.1 -0.5 69
2018-06-27 01:00:00 20.6 6 Norte 17 Oeste 0 899.4 0.2 58
2018-06-27 00:00:00 23.5 9 Sur 44 Oeste 0 899.3 0.5 48
2018-06-26 23:00:00 21.5 10 Oeste 32 Oeste 0 899.6 1.3 61
2018-06-26 22:00:00 24.6 11 Oeste 46 Sur 0 899.2 1.6 48
2018-06-26 21:00:00 23.8 5 Oeste 22 Noroeste 0 898.8 1.1 50
2018-06-26 20:00:00 24.1 3 Sudoeste 14 Sur 0 898.3 0.7 54
2018-06-26 19:00:00 24.1 5 Oeste 17 Sur 0 897.6 -0.2 53
2018-06-26 18:00:00 24.4 15 Sur 32 Sur 0 897.7 -0.2 48
2018-06-26 17:00:00 32.2 6 Este 36 Sudeste 0 897.6 -0.9 27
2018-06-26 16:00:00 32.6 4 Norte 17 Este 0 897.8 -1 30
2018-06-26 15:00:00 31.6 5 Nordeste 13 Este 0 897.9 -1.1 33
2018-06-26 14:00:00 30.4 6 Sur 15 Sudeste 0 898.5 -0.7 30
2018-06-26 13:00:00 28.9 4 Sudoeste 15 Oeste 0 898.8 -0.7 37
2018-06-26 12:00:00 26.6 5 Sudoeste 10 Sudoeste 0 899 -0.7 43
2018-06-26 11:00:00 24 3 Oeste 7 Sudoeste 0 899.2 -0.3 49
2018-06-26 10:00:00 20.3 3 Sur 5 Sur 0 899.5 0.2 57
2018-06-26 09:00:00 15.9 3 Sudoeste 4 Sudoeste 0 899.7 0.8 74
2018-06-26 08:00:00 13.1 0 Calma 7 Sudeste 0 899.5 0.7 81
2018-06-26 07:00:00 12.6 0 Calma 5 Sudeste 0 899.3 0.4 82
2018-06-26 06:00:00 12.8 3 Sudoeste 5 Sudoeste 0 898.9 -0.2 82
2018-06-26 05:00:00 13.5 0 Calma 6 Sudeste 0 898.8 -0.7 76
2018-06-26 04:00:00 14.6 0 Calma 9 Nordeste 0 898.9 -0.7 72
2018-06-26 03:00:00 15.6 3 Este 5 Este 0 899.1 -0.5 70
2018-06-26 02:00:00 16.5 4 Sudeste 7 Norte 0 899.5 0.5 65
2018-06-26 01:00:00 17.7 2 Nordeste 6 Sudeste 0 899.6 1.6 63
2018-06-26 00:00:00 19.5 3 Sudeste 7 Este 0 899.6 2.1 58
2018-06-25 23:00:00 21.9 2 Este 5 Sudeste 0 899 2 50
2018-06-25 22:00:00 24.8 2 Nordeste 8 Norte 0 898 1.1 39
2018-06-25 21:00:00 28.4 2 Norte 14 Este 0 897.5 0.3 30
2018-06-25 20:00:00 31.1 4 Nordeste 13 Este 0 897 -0.3 25
2018-06-25 19:00:00 32.7 5 Nordeste 18 Norte 0 896.9 -0.6 20
2018-06-25 18:00:00 32.8 10 Noroeste 23 Noroeste 0 897.2 -0.5 22
2018-06-25 17:00:00 32.1 8 Oeste 24 Oeste 0 897.3 -0.7 20
2018-06-25 16:00:00 31.5 10 Noroeste 25 Oeste 0 897.5 -0.8 24
2018-06-25 15:00:00 29.6 6 Oeste 18 Sur 0 897.7 -1 31
2018-06-25 14:00:00 29 5 Sudoeste 16 Oeste 0 898 -0.7 34
2018-06-25 13:00:00 27.7 8 Sudoeste 18 Sudoeste 0 898.3 -0.6 31
2018-06-25 12:00:00 26.7 3 Noroeste 8 Oeste 0 898.7 -0.2 30
2018-06-25 11:00:00 23.3 3 Oeste 8 Sur 0 898.7 -0.2 43
2018-06-25 10:00:00 19.2 2 Oeste 6 Sudoeste 0 898.9 0.1 55
2018-06-25 09:00:00 14.2 3 Sur 6 Oeste 0 898.9 0.3 70
2018-06-25 08:00:00 9.5 0 Calma 4 Este 0 898.9 0.3 82
2018-06-25 07:00:00 8.9 0 Calma 5 Este 0 898.8 0 81
2018-06-25 06:00:00 9.7 3 Este 7 Sudeste 0 898.6 -0.6 78
2018-06-25 05:00:00 10.4 2 Este 6 Sudeste 0 898.6 -0.8 74
2018-06-25 04:00:00 11.3 2 Sudeste 6 Sudeste 0 898.8 -0.8 72
2018-06-25 03:00:00 12.7 0 Calma 6 Sudeste 0 899.2 -0.3 67
2018-06-25 02:00:00 13.9 3 Este 6 Sudeste 0 899.4 0.1 63
2018-06-25 01:00:00 15.8 3 Este 6 Este 0 899.6 0.9 58
2018-06-25 00:00:00 18 3 Este 7 Sudeste 0 899.5 1.5 52
2018-06-24 23:00:00 20.6 2 Sudeste 10 Este 0 899.3 2 45
2018-06-24 22:00:00 23.9 6 Este 15 Este 0 898.7 1.7 39
2018-06-24 21:00:00 26.8 5 Nordeste 18 Este 0 898 0.6 37
2018-06-24 20:00:00 30.1 4 Nordeste 25 Sudoeste 0 897.3 -0.3 35
2018-06-24 19:00:00 31.2 13 Oeste 27 Noroeste 0 897 -0.9 25
2018-06-24 18:00:00 32 10 Noroeste 27 Oeste 0 897.4 -0.9 26
2018-06-24 17:00:00 31.8 11 Noroeste 26 Norte 0 897.6 -1 28
2018-06-24 16:00:00 31.6 11 Oeste 23 Norte 0 897.9 -1 28
2018-06-24 15:00:00 31.3 12 Oeste 25 Oeste 0 898.3 -0.7 27
2018-06-24 14:00:00 30.4 11 Oeste 22 Noroeste 0 898.6 -0.6 29
2018-06-24 13:00:00 29.2 8 Noroeste 19 Oeste 0 898.9 -0.4 32
2018-06-24 12:00:00 27.7 6 Norte 14 Sudoeste 0 899 -0.4 43
2018-06-24 11:00:00 25.2 8 Oeste 15 Oeste 0 899.2 -0.3 50
2018-06-24 10:00:00 20.6 3 Sur 5 Sur 0 899.3 -0.3 68
2018-06-24 09:00:00 16.4 2 Este 4 Este 0 899.4 0.1 76
2018-06-24 08:00:00 12.6 0 Calma 4 Este 0 899.5 0.4 89
2018-06-24 07:00:00 12.2 0 Calma 4 Este 0 899.6 0.4 86
2018-06-24 06:00:00 12.8 0 Calma 5 Sudeste 0 899.3 -0.1 86
2018-06-24 05:00:00 13.5 0 Calma 6 Sudeste 0 899.1 -0.5 83
2018-06-24 04:00:00 14.4 3 Este 6 Este 0 899.2 -0.7 82
2018-06-24 03:00:00 15.4 4 Sudeste 7 Sudeste 0 899.4 -0.7 76
2018-06-24 02:00:00 16.7 3 Sudeste 8 Este 0 899.6 -0.2 71
2018-06-24 01:00:00 18.7 3 Este 8 Este 0 899.9 0.9 58
2018-06-24 00:00:00 20 2 Norte 15 Norte 0 900.1 1.5 55
2018-06-23 23:00:00 21.5 5 Norte 12 Nordeste 0 899.8 1.4 53
2018-06-23 22:00:00 24 4 Norte 10 Norte 0 899 1 59
2018-06-23 21:00:00 26 5 Este 25 Este 0 898.6 0.5 53
2018-06-23 20:00:00 28.2 12 Este 23 Este 0 898.4 0.1 42
2018-06-23 19:00:00 30.2 4 Noroeste 15 Norte 0 898 -0.8 32
2018-06-23 18:00:00 30.1 5 Noroeste 24 Oeste 0 898.1 -1.1 33
2018-06-23 17:00:00 30.4 10 Noroeste 24 Oeste 0 898.3 -1.3 31
2018-06-23 16:00:00 30.2 10 Sudoeste 22 Oeste 0 898.8 -1.1 30
2018-06-23 15:00:00 30.1 9 Sudoeste 23 Sudoeste 0 899.2 -0.8 32
2018-06-23 14:00:00 29.3 10 Sudoeste 29 Sur 0 899.6 -0.5 31
2018-06-23 13:00:00 28.8 9 Oeste 24 Oeste 0 899.9 -0.5 33
2018-06-23 12:00:00 27.6 8 Oeste 14 Noroeste 0 900 -0.5 42
2018-06-23 11:00:00 24.8 3 Sudoeste 7 Sur 0 900.1 -0.3 55
2018-06-23 10:00:00 20.6 3 Sudoeste 7 Sur 0 900.4 0.1 75
2018-06-23 09:00:00 16.6 2 Sur 6 Sur 0 900.5 0.3 82
2018-06-23 08:00:00 13.7 3 Sudeste 6 Este 0 900.4 0.4 91
2018-06-23 07:00:00 13 2 Este 5 Este 0 900.3 0.3 88
2018-06-23 06:00:00 13.6 0 Calma 5 Este 0 900.2 -0.1 87
2018-06-23 05:00:00 14.4 2 Este 6 Sudeste 0 900 -0.5 85
2018-06-23 04:00:00 15.5 0 Calma 4 Sudeste 0 900 -0.7 83
2018-06-23 03:00:00 16.5 3 Este 7 Sudeste 0 900.3 -0.7 80
2018-06-23 02:00:00 17.9 4 Este 7 Sudeste 0 900.5 -0.1 77
2018-06-23 01:00:00 19.5 0 Calma 12 Este 0 900.7 1.1 70
2018-06-23 00:00:00 20.7 5 Este 14 Este 0 901 1.9 65
2018-06-22 23:00:00 21.5 2 Nordeste 15 Norte 0 900.6 2.1 63
2018-06-22 22:00:00 23.3 2 Nordeste 20 Este 0 899.6 0.8 59
2018-06-22 21:00:00 24.7 5 Nordeste 21 Este 0 899.1 0.3 55
2018-06-22 20:00:00 27.2 4 Nordeste 16 Este 0 898.5 -0.3 41
2018-06-22 19:00:00 27.4 6 Este 22 Este 0 898.8 -0.4 39
2018-06-22 18:00:00 29.6 6 Norte 24 Norte 0 898.8 -0.8 34
2018-06-22 17:00:00 30.8 9 Norte 18 Norte 0 898.8 -1.4 34
2018-06-22 16:00:00 31.1 4 Nordeste 27 Oeste 0 899.2 -1.4 33
2018-06-22 15:00:00 29.6 6 Sudeste 16 Este 0 899.6 -1.2 32
2018-06-22 14:00:00 28.7 4 Nordeste 17 Este 0 900.2 -0.7 28
2018-06-22 13:00:00 27.8 6 Sudeste 13 Sudeste 0 900.6 -0.6 34
2018-06-22 12:00:00 26.2 3 Sur 10 Sudoeste 0 900.8 -0.4 46
2018-06-22 11:00:00 23.4 4 Sur 7 Sur 0 900.9 -0.3 49
2018-06-22 10:00:00 19.4 3 Sudoeste 5 Sur 0 901.2 0.2 57
2018-06-22 09:00:00 15.6 0 Calma 4 Norte 0 901.2 0.3 71
2018-06-22 08:00:00 11.5 2 Nordeste 4 Este 0 901.2 0.3 86
2018-06-22 07:00:00 11 2 Este 4 Este 0 901 0.1 85
2018-06-22 06:00:00 11.7 2 Este 4 Este 0 900.9 -0.2 82
2018-06-22 05:00:00 12.6 3 Sudeste 6 Este 0 900.9 -0.3 81
2018-06-22 04:00:00 13.4 0 Calma 8 Sudeste 0 900.9 -0.3 79
2018-06-22 03:00:00 14.9 0 Calma 8 Sudeste 0 901.1 0.4 74
2018-06-22 02:00:00 16.3 0 Calma 4 Sudeste 0 901.2 1 70
2018-06-22 01:00:00 17.5 3 Nordeste 7 Norte 0 901.2 1.7 65
2018-06-22 00:00:00 19 3 Nordeste 10 Este 0 900.7 1.4 61
2018-06-21 23:00:00 21 3 Norte 9 Noroeste 0 900.2 1.2 54
2018-06-21 22:00:00 23.3 0 Calma 6 Nordeste 0 899.5 0.6 48
2018-06-21 21:00:00 26 3 Nordeste 18 Nordeste 0 899.3 0.3 39
2018-06-21 20:00:00 28 7 Este 21 Este 0 899 -0.4 31
2018-06-21 19:00:00 29.1 2 Nordeste 22 Sudeste 0 898.9 -0.8 31
2018-06-21 18:00:00 30.5 7 Este 19 Este 0 899 -0.9 24
2018-06-21 17:00:00 29.7 7 Este 21 Este 0 899.4 -0.8 26
2018-06-21 16:00:00 29.6 7 Este 23 Este 0 899.7 -0.8 31
2018-06-21 15:00:00 29 12 Este 28 Este 0 899.9 -0.8 27
2018-06-21 14:00:00 28.4 7 Sudeste 24 Este 0 900.2 -0.5 25
2018-06-21 13:00:00 27.4 8 Este -- -- -- 900.5 -0.6 28
2018-06-21 12:00:00 26.1 11 Este 22 Sudeste 0 900.7 -0.5 31
2018-06-21 11:00:00 23.6 4 Noroeste 9 Sur 0 900.7 -0.3 54
2018-06-21 10:00:00 20 3 Sudeste 7 Este 0 901.1 0.3 61
2018-06-21 09:00:00 15.8 2 Este 5 Este 0 901.2 0.5 77
2018-06-21 08:00:00 11.8 0 Calma 5 Sudeste 0 901 0.3 91
2018-06-21 07:00:00 11.5 0 Calma 5 Sudeste 0 900.8 -0.1 88
2018-06-21 06:00:00 12.5 2 Este 5 Este 0 900.7 -0.3 86
2018-06-21 05:00:00 13.6 2 Este 6 Este 0 900.7 -0.2 84
2018-06-21 04:00:00 14.6 3 Este 9 Este 0 900.9 -0.1 82
2018-06-21 03:00:00 15.6 3 Sudoeste 8 Sudoeste 0 901 0.2 79
2018-06-21 02:00:00 16.6 0 Calma 4 Sur 0 900.9 0.8 75
2018-06-21 01:00:00 18 0 Calma 7 Este 0 901 1.4 70
2018-06-21 00:00:00 19.9 0 Calma 9 Sudeste 0 900.8 1.6 63
2018-06-20 23:00:00 22 6 Este 17 Este 0 900.1 1.1 48
2018-06-20 22:00:00 23.2 3 Nordeste 9 Nordeste 0 899.6 0.9 44
2018-06-20 21:00:00 25 2 Nordeste 16 Nordeste 0 899.2 0.2 42
2018-06-20 20:00:00 28.1 4 Nordeste 22 Norte 0 899 -0.3 36
2018-06-20 19:00:00 29.7 6 Nordeste 21 Este 0 898.7 -0.8 33
2018-06-20 18:00:00 29.9 7 Nordeste 21 Norte 0 899 -0.9 30
2018-06-20 17:00:00 30.1 5 Norte 20 Norte 0 899.3 -1.1 33
2018-06-20 16:00:00 29.5 6 Norte 19 Este 0 899.5 -1.1 37
2018-06-20 15:00:00 28.9 7 Norte 22 Nordeste 0 899.9 -1.1 32
2018-06-20 14:00:00 27.4 6 Nordeste 18 Norte 0 900.4 -0.8 46
2018-06-20 13:00:00 26.3 6 Este 14 Nordeste 0 900.6 -0.8 44
2018-06-20 12:00:00 24.6 5 Sur 11 Sur 0 901 -0.5 51
2018-06-20 11:00:00 22.7 3 Sudoeste 8 Sudoeste 0 901.2 -0.2 57
2018-06-20 10:00:00 20 3 Oeste 5 Oeste 0 901.4 0.1 68
2018-06-20 09:00:00 16.2 2 Oeste 5 Sudeste 0 901.5 0.4 78
2018-06-20 08:00:00 12.9 2 Este 5 Nordeste 0 901.4 0.5 89
2018-06-20 07:00:00 12 0 Calma 6 Sudeste 0 901.3 0.4 89
2018-06-20 06:00:00 12.5 2 Este 5 Sudeste 0 901.1 -0.1 88
2018-06-20 05:00:00 13.2 2 Este 4 Sudeste 0 900.9 -0.3 87
2018-06-20 04:00:00 13.9 0 Calma 5 Este 0 900.9 -0.3 85
2018-06-20 03:00:00 15 0 Calma 8 Sudeste 0 901.2 0 81
2018-06-20 02:00:00 16.2 3 Norte 8 Sudeste 0 901.2 0.2 77
2018-06-20 01:00:00 17.7 2 Este 5 Este 0 901.2 0.7 72
2018-06-20 00:00:00 19.6 0 Calma 14 Nordeste 0 901.2 1.1 64
2018-06-19 23:00:00 20.9 2 Este 10 Norte 0 901 1.3 62
2018-06-19 22:00:00 22.6 0 Calma 18 Norte 0 900.5 1 56
2018-06-19 21:00:00 24.9 6 Norte 25 Norte 0 900.1 0.2 49
2018-06-19 20:00:00 27.9 5 Nordeste 23 Norte 0 899.7 -0.6 43
2018-06-19 19:00:00 29.4 4 Sudeste 17 Norte 0 899.5 -1.2 31
2018-06-19 18:00:00 29.3 5 Oeste 13 Sudoeste 0 899.9 -0.9 31
2018-06-19 17:00:00 29.2 5 Oeste 15 Oeste 0 900.3 -1 33
2018-06-19 16:00:00 28.4 6 Oeste 15 Oeste 0 900.7 -1.1 38
2018-06-19 15:00:00 28.1 5 Norte 15 Noroeste 0 900.8 -1.4 34
2018-06-19 14:00:00 26.8 6 Sudeste 14 Norte 0 901.3 -1.1 38
2018-06-19 13:00:00 25.6 4 Sudeste 13 Sudeste 0 901.8 -1.1 42
2018-06-19 12:00:00 24 3 Nordeste 10 Norte 0 902.2 -0.9 48
2018-06-19 11:00:00 21.1 4 Sudoeste 7 Norte 0 902.4 -0.7 62
2018-06-19 10:00:00 17.3 4 Sur 6 Sur 0 902.9 -0.2 70
2018-06-19 09:00:00 13 3 Sudoeste 5 Sur 0 903.1 0.1 82
2018-06-19 08:00:00 9.4 0 Calma 3 Sur 0 903.1 0.3 93
2018-06-19 07:00:00 8.6 2 Sur 4 Nordeste 0 903.1 0.3 91
2018-06-19 06:00:00 9.1 2 Norte 3 Nordeste 0 903 0.2 90
2018-06-19 05:00:00 9.9 2 Norte 3 Norte 0 902.8 -0.3 89
2018-06-19 04:00:00 10.8 0 Calma 5 Sudeste 0 902.8 -0.5 89
2018-06-19 03:00:00 11.3 3 Sudeste 6 Este 0 902.8 -0.5 88
2018-06-19 02:00:00 11.8 2 Nordeste 10 Este 0 903.1 -0.1 87
2018-06-19 01:00:00 12.6 3 Este 7 Este 0 903.3 0.6 83
2018-06-19 00:00:00 13.8 3 Este 8 Este 0 903.3 1.1 77
2018-06-18 23:00:00 15.6 4 Este 10 Este 0 903.2 1.2 72
2018-06-18 22:00:00 18.1 5 Este 15 Este 0 902.7 0.7 59
2018-06-18 21:00:00 20.9 5 Nordeste 22 Norte 0 902.2 0.1 51
2018-06-18 20:00:00 22.8 6 Norte 15 Norte 0 902 -0.2 43
2018-06-18 19:00:00 23.2 5 Norte 23 Norte 0 902 -0.5 43
2018-06-18 18:00:00 25 9 Norte 23 Norte 0 902.1 -0.8 41
2018-06-18 17:00:00 27 9 Norte 23 Norte 0 902.2 -1.3 33
2018-06-18 16:00:00 26.8 6 Nordeste 21 Norte 0 902.5 -1.3 32
2018-06-18 15:00:00 25.9 8 Norte 21 Norte 0 902.9 -1.2 43
2018-06-18 14:00:00 25 6 Nordeste 22 Nordeste 0 903.5 -0.5 41
2018-06-18 13:00:00 24.3 10 Norte 24 Noroeste 0 903.8 -0.1 40
2018-06-18 12:00:00 22.8 7 Nordeste 21 Nordeste 0 904.1 -0.1 45
2018-06-18 11:00:00 21.6 4 Norte 15 Este 0 904 0 54
2018-06-18 10:00:00 18.8 4 Este 12 Este 0 903.9 -0.2 63
2018-06-18 09:00:00 14 3 Sudoeste 9 Sudeste 0 904.2 0.4 70
2018-06-18 08:00:00 9.6 3 Sudeste 7 Sur 0 904 0.2 84
2018-06-18 07:00:00 8.4 0 Calma 7 Sur 0 904.1 0.4 86
2018-06-18 06:00:00 8.9 4 Nordeste 7 Este 0 903.8 -0.2 85
2018-06-18 05:00:00 9.8 4 Este 7 Este 0 903.8 -0.3 81
2018-06-18 04:00:00 10.7 0 Calma 10 Sudeste 0 903.7 -0.5 78
2018-06-18 03:00:00 11.9 3 Sudeste 5 Norte 0 904 -0.5 77
2018-06-18 02:00:00 13.1 3 Este 9 Sudeste 0 904.1 0.3 72
2018-06-18 01:00:00 14.1 3 Nordeste 10 Este 0 904.2 1.3 69
2018-06-18 00:00:00 15.8 2 Este 8 Norte 0 904.5 2.3 64
2018-06-17 23:00:00 17.8 5 Norte 8 Norte 0 903.8 2.1 57
2018-06-17 22:00:00 20.4 4 Noroeste 17 Nordeste 0 902.9 1.3 48
2018-06-17 21:00:00 22.8 9 Norte 21 Norte 0 902.2 0.6 44
2018-06-17 20:00:00 25.6 7 Norte 22 Norte 0 901.7 0.3 35
2018-06-17 19:00:00 27 9 Norte 35 Noroeste 0 901.6 -0.1 30
2018-06-17 18:00:00 27.2 7 Norte 18 Noroeste 0 901.6 -0.2 29
2018-06-17 17:00:00 26.8 8 Oeste 21 Oeste 0 901.4 -0.5 28
2018-06-17 16:00:00 26.2 6 Noroeste 24 Oeste 0 901.7 -0.4 28
2018-06-17 15:00:00 25.8 9 Oeste 24 Nordeste 0 901.8 -0.3 39
2018-06-17 14:00:00 24.8 8 Oeste 17 Noroeste 0 901.9 -0.3 34
2018-06-17 13:00:00 24 9 Oeste 18 Oeste 0 902.1 -0.1 39
2018-06-17 12:00:00 23.2 7 Norte 15 Nordeste 0 902.1 0.2 47
2018-06-17 11:00:00 19.8 4 Sur 7 Sudoeste 0 902.2 0.7 50
2018-06-17 10:00:00 15.8 3 Sur 6 Sur 0 902.2 1 67
2018-06-17 09:00:00 12 2 Sur 4 Sur 0 901.9 1 81
2018-06-17 08:00:00 8.2 0 Calma 3 Este 0 901.5 0.7 93
2018-06-17 07:00:00 7.6 0 Calma 6 Sudeste 0 901.2 0.3 92
2018-06-17 06:00:00 8.1 0 Calma 4 Este 0 900.9 0 90
2018-06-17 05:00:00 8.9 0 Calma 7 Este 0 900.8 0.3 89
2018-06-17 04:00:00 9.9 2 Este 5 Este 0 900.9 0.5 87
2018-06-17 03:00:00 11 0 Calma 6 Sudeste 0 900.9 0.6 85
2018-06-17 02:00:00 12 3 Sudeste 5 Sudeste 0 900.5 0.7 83
2018-06-17 01:00:00 13.3 3 Este 7 Sur 0 900.4 1.6 79
2018-06-17 00:00:00 14.8 3 Nordeste 5 Este 0 900.3 2.2 73